createdAt,value
2018-12-26T00:00:27.114Z,33.3
2018-12-26T00:01:27.488Z,45.3
2018-12-26T00:02:27.242Z,36.3
2018-12-26T00:03:26.505Z,30.3
2018-12-26T00:04:26.228Z,48.3
2018-12-26T00:05:26.801Z,33.3
2018-12-26T00:06:26.912Z,36.3
2018-12-26T00:07:27.000Z,39.3
2018-12-26T00:08:26.767Z,45.3
2018-12-26T00:09:27.057Z,42.3
2018-12-26T00:10:26.731Z,57.3
2018-12-26T00:11:27.006Z,48.3
2018-12-26T00:12:25.773Z,36.3
2018-12-26T00:13:27.305Z,39.3
2018-12-26T00:14:25.127Z,33.3
2018-12-26T00:15:26.035Z,36.3
2018-12-26T00:16:24.895Z,39.3
2018-12-26T00:17:26.049Z,45.3
2018-12-26T00:18:26.666Z,57.3
2018-12-26T00:19:26.736Z,45.3
2018-12-26T00:20:27.321Z,51.3
2018-12-26T00:21:26.222Z,57.3
2018-12-26T00:22:26.067Z,60.3
2018-12-26T00:23:26.467Z,54.3
2018-12-26T00:24:26.016Z,66.4
2018-12-26T00:25:26.354Z,57.3
2018-12-26T00:26:27.229Z,45.3
2018-12-26T00:27:25.636Z,57.3
2018-12-26T00:28:28.357Z,60.3
2018-12-26T00:29:26.497Z,48.3
2018-12-26T00:30:26.452Z,48.3
2018-12-26T00:31:26.308Z,63.4
2018-12-26T00:32:28.460Z,69.4
2018-12-26T00:33:25.784Z,48.3
2018-12-26T00:34:26.835Z,66.4
2018-12-26T00:35:26.607Z,60.3
2018-12-26T00:36:25.593Z,51.3
2018-12-26T00:37:26.964Z,60.3
2018-12-26T00:38:25.972Z,72.4
2018-12-26T00:39:26.225Z,60.3
2018-12-26T00:40:25.985Z,93.5
2018-12-26T00:41:25.616Z,96.5
2018-12-26T00:42:26.030Z,81.4
2018-12-26T00:43:27.444Z,87.4
2018-12-26T00:44:25.983Z,87.4
2018-12-26T00:45:26.580Z,81.4
2018-12-26T00:46:25.710Z,60.3
2018-12-26T00:47:24.617Z,96.5
2018-12-26T00:48:24.659Z,75.4
2018-12-26T00:49:24.632Z,69.4
2018-12-26T00:50:24.648Z,69.4
2018-12-26T00:51:24.717Z,60.3
2018-12-26T00:52:24.673Z,66.4
2018-12-26T00:53:24.678Z,84.4
2018-12-26T00:54:24.625Z,90.4
2018-12-26T00:55:24.651Z,69.4
2018-12-26T00:56:24.772Z,66.4
2018-12-26T00:57:24.693Z,63.4
2018-12-26T00:58:24.642Z,75.4
2018-12-26T00:59:24.621Z,63.4
2018-12-26T01:00:24.697Z,90.4
2018-12-26T01:01:24.672Z,84.4
2018-12-26T01:02:24.661Z,75.4
2018-12-26T01:03:24.713Z,72.4
2018-12-26T01:04:24.640Z,60.3
2018-12-26T01:05:24.615Z,54.3
2018-12-26T01:06:24.672Z,60.3
2018-12-26T01:07:24.740Z,57.3
2018-12-26T01:08:24.640Z,78.4
2018-12-26T01:09:24.656Z,90.4
2018-12-26T01:10:24.627Z,81.4
2018-12-26T01:11:24.661Z,78.4
2018-12-26T01:12:24.702Z,81.4
2018-12-26T01:13:24.678Z,72.4
2018-12-26T01:14:24.707Z,72.4
2018-12-26T01:15:24.656Z,72.4
2018-12-26T01:16:24.633Z,84.4
2018-12-26T01:17:24.626Z,84.4
2018-12-26T01:18:24.635Z,72.4
2018-12-26T01:19:24.649Z,57.3
2018-12-26T01:20:24.729Z,57.3
2018-12-26T01:21:24.614Z,45.3
2018-12-26T01:22:24.619Z,54.3
2018-12-26T01:23:24.625Z,66.4
2018-12-26T01:24:24.632Z,54.3
2018-12-26T01:25:24.838Z,60.3
2018-12-26T01:26:24.649Z,51.3
2018-12-26T01:27:24.619Z,48.3
2018-12-26T01:28:24.784Z,48.3
2018-12-26T01:29:24.660Z,45.3
2018-12-26T01:30:24.652Z,48.3
2018-12-26T01:31:24.656Z,45.3
2018-12-26T01:32:24.605Z,48.3
2018-12-26T01:33:24.649Z,81.4
2018-12-26T01:34:24.656Z,66.4
2018-12-26T01:35:24.689Z,72.4
2018-12-26T01:36:24.724Z,66.4
2018-12-26T01:37:24.631Z,84.4
2018-12-26T01:38:24.593Z,75.4
2018-12-26T01:39:24.741Z,81.4
2018-12-26T01:40:24.631Z,105.5
2018-12-26T01:41:24.623Z,102.5
2018-12-26T01:42:24.642Z,99.5
2018-12-26T01:43:24.601Z,99.5
2018-12-26T01:44:24.718Z,105.5
2018-12-26T01:45:24.619Z,102.5
2018-12-26T01:46:24.621Z,102.5
2018-12-26T01:47:24.621Z,102.5
2018-12-26T01:48:24.666Z,99.5
2018-12-26T01:49:24.633Z,99.5
2018-12-26T01:50:24.632Z,99.5
2018-12-26T01:51:24.709Z,87.4
2018-12-26T01:52:24.618Z,93.5
2018-12-26T01:53:24.613Z,84.4
2018-12-26T01:54:24.567Z,81.4
2018-12-26T01:55:24.684Z,105.5
2018-12-26T01:56:29.174Z,105.5
2018-12-26T01:57:24.679Z,111.5
2018-12-26T01:58:24.621Z,93.5
2018-12-26T01:59:24.625Z,84.4
2018-12-26T02:00:24.605Z,105.5
2018-12-26T02:01:24.616Z,120.6
2018-12-26T02:02:24.634Z,111.5
2018-12-26T02:03:24.641Z,99.5
2018-12-26T02:04:24.607Z,102.5
2018-12-26T02:05:24.590Z,84.4
2018-12-26T02:06:24.621Z,90.4
2018-12-26T02:07:24.628Z,87.4
2018-12-26T02:08:24.622Z,84.4
2018-12-26T02:09:24.678Z,87.4
2018-12-26T02:10:24.598Z,72.4
2018-12-26T02:11:24.627Z,90.4
2018-12-26T02:12:24.630Z,87.4
2018-12-26T02:13:24.657Z,96.5
2018-12-26T02:14:24.588Z,90.4
2018-12-26T02:15:24.634Z,93.5
2018-12-26T02:16:24.596Z,75.4
2018-12-26T02:17:24.626Z,81.4
2018-12-26T02:18:24.685Z,81.4
2018-12-26T02:19:24.622Z,75.4
2018-12-26T02:20:24.699Z,69.4
2018-12-26T02:21:24.584Z,75.4
2018-12-26T02:22:24.601Z,81.4
2018-12-26T02:23:24.610Z,81.4
2018-12-26T02:24:24.680Z,90.4
2018-12-26T02:25:24.632Z,90.4
2018-12-26T02:26:24.608Z,81.4
2018-12-26T02:27:24.554Z,75.4
2018-12-26T02:28:24.617Z,69.4
2018-12-26T02:29:24.670Z,75.4
2018-12-26T02:30:24.627Z,72.4
2018-12-26T02:31:24.671Z,81.4
2018-12-26T02:32:24.564Z,75.4
2018-12-26T02:33:24.637Z,75.4
2018-12-26T02:34:24.597Z,75.4
2018-12-26T02:35:24.604Z,63.4
2018-12-26T02:36:24.705Z,75.4
2018-12-26T02:37:24.618Z,69.4
2018-12-26T02:38:24.562Z,69.4
2018-12-26T02:39:24.634Z,63.4
2018-12-26T02:40:24.610Z,60.3
2018-12-26T02:41:24.697Z,57.3
2018-12-26T02:42:24.605Z,57.3
2018-12-26T02:43:24.566Z,48.3
2018-12-26T02:44:24.623Z,45.3
2018-12-26T02:45:24.603Z,57.3
2018-12-26T02:46:24.842Z,51.3
2018-12-26T02:47:24.613Z,54.3
2018-12-26T02:48:24.577Z,63.4
2018-12-26T02:49:24.557Z,66.4
2018-12-26T02:50:24.590Z,75.4
2018-12-26T02:51:24.649Z,69.4
2018-12-26T02:52:24.838Z,57.3
2018-12-26T02:53:24.605Z,75.4
2018-12-26T02:54:24.542Z,60.3
2018-12-26T02:55:24.579Z,57.3
2018-12-26T02:56:24.591Z,51.3
2018-12-26T02:57:24.677Z,63.4
2018-12-26T02:58:24.614Z,75.4
2018-12-26T02:59:24.560Z,75.4
2018-12-26T03:00:24.576Z,84.4
2018-12-26T03:01:24.599Z,69.4
2018-12-26T03:02:24.682Z,63.4
2018-12-26T03:03:24.606Z,51.3
2018-12-26T03:04:25.591Z,63.4
2018-12-26T03:05:24.554Z,96.5
2018-12-26T03:06:24.589Z,84.4
2018-12-26T03:07:24.631Z,81.4
2018-12-26T03:08:24.698Z,69.4
2018-12-26T03:09:24.583Z,69.4
2018-12-26T03:10:24.536Z,69.4
2018-12-26T03:11:24.571Z,69.4
2018-12-26T03:12:24.749Z,81.4
2018-12-26T03:13:24.590Z,66.4
2018-12-26T03:14:24.567Z,75.4
2018-12-26T03:15:24.584Z,111.5
2018-12-26T03:16:24.539Z,63.4
2018-12-26T03:17:24.634Z,63.4
2018-12-26T03:18:24.641Z,69.4
2018-12-26T03:19:24.572Z,63.4
2018-12-26T03:20:24.595Z,63.4
2018-12-26T03:21:24.546Z,66.4
2018-12-26T03:22:24.631Z,90.4
2018-12-26T03:23:24.599Z,81.4
2018-12-26T03:24:24.589Z,69.4
2018-12-26T03:25:24.624Z,81.4
2018-12-26T03:26:24.585Z,54.3
2018-12-26T03:27:24.548Z,66.4
2018-12-26T03:28:24.564Z,60.3
2018-12-26T03:29:24.562Z,60.3
2018-12-26T03:30:24.627Z,51.3
2018-12-26T03:31:24.597Z,45.3
2018-12-26T03:32:24.572Z,51.3
2018-12-26T03:33:24.575Z,54.3
2018-12-26T03:34:24.566Z,48.3
2018-12-26T03:35:24.634Z,48.3
2018-12-26T03:36:24.571Z,42.3
2018-12-26T03:37:24.539Z,42.3
2018-12-26T03:38:24.523Z,51.3
2018-12-26T03:39:24.583Z,51.3
2018-12-26T03:40:24.632Z,54.3
2018-12-26T03:41:24.584Z,51.3
2018-12-26T03:42:24.633Z,45.3
2018-12-26T03:43:24.537Z,45.3
2018-12-26T03:44:24.565Z,48.3
2018-12-26T03:45:24.615Z,45.3
2018-12-26T03:46:24.627Z,51.3
2018-12-26T03:47:24.544Z,45.3
2018-12-26T03:48:24.545Z,30.3
2018-12-26T03:49:24.581Z,54.3
2018-12-26T03:50:24.742Z,48.3
2018-12-26T03:51:24.575Z,48.3
2018-12-26T03:52:24.546Z,39.3
2018-12-26T03:53:24.541Z,33.3
2018-12-26T03:54:24.571Z,27.3
2018-12-26T03:55:24.562Z,33.3
2018-12-26T03:56:24.653Z,39.3
2018-12-26T03:57:24.563Z,39.3
2018-12-26T03:58:24.564Z,39.3
2018-12-26T03:59:24.539Z,51.3
2018-12-26T04:00:24.678Z,36.3
2018-12-26T04:01:24.630Z,33.3
2018-12-26T04:02:24.564Z,30.3
2018-12-26T04:03:24.567Z,36.3
2018-12-26T04:04:24.552Z,54.3
2018-12-26T04:05:24.566Z,42.3
2018-12-26T04:06:24.638Z,45.3
2018-12-26T04:07:24.560Z,48.3
2018-12-26T04:08:24.546Z,45.3
2018-12-26T04:09:24.556Z,54.3
2018-12-26T04:10:24.582Z,57.3
2018-12-26T04:11:24.537Z,48.3
2018-12-26T04:12:24.579Z,48.3
2018-12-26T04:13:24.540Z,42.3
2018-12-26T04:14:24.572Z,48.3
2018-12-26T04:15:24.601Z,42.3
2018-12-26T04:16:24.550Z,48.3
2018-12-26T04:17:24.617Z,48.3
2018-12-26T04:18:24.627Z,51.3
2018-12-26T04:19:24.546Z,39.3
2018-12-26T04:20:24.531Z,42.3
2018-12-26T04:21:24.503Z,42.3
2018-12-26T04:22:24.538Z,48.3
2018-12-26T04:23:24.606Z,54.3
2018-12-26T04:24:24.565Z,51.3
2018-12-26T04:25:24.535Z,48.3
2018-12-26T04:26:24.608Z,39.3
2018-12-26T04:27:24.591Z,36.3
2018-12-26T04:28:24.538Z,36.3
2018-12-26T04:29:24.513Z,39.3
2018-12-26T04:30:24.554Z,36.3
2018-12-26T04:31:24.558Z,60.3
2018-12-26T04:32:24.533Z,48.3
2018-12-26T04:33:24.533Z,30.3
2018-12-26T04:34:24.663Z,54.3
2018-12-26T04:35:24.500Z,33.3
2018-12-26T04:36:24.521Z,48.3
2018-12-26T04:37:24.507Z,42.3
2018-12-26T04:38:24.516Z,24.3
2018-12-26T04:39:24.614Z,24.3
2018-12-26T04:40:24.539Z,21.3
2018-12-26T04:41:24.559Z,48.3
2018-12-26T04:42:24.523Z,27.3
2018-12-26T04:43:24.498Z,42.3
2018-12-26T04:44:24.611Z,18.3
2018-12-26T04:45:24.580Z,42.3
2018-12-26T04:46:24.526Z,30.3
2018-12-26T04:47:24.539Z,30.3
2018-12-26T04:48:24.501Z,27.3
2018-12-26T04:49:25.213Z,42.3
2018-12-26T04:50:24.617Z,45.3
2018-12-26T04:51:24.501Z,33.3
2018-12-26T04:52:24.516Z,45.3
2018-12-26T04:53:24.526Z,51.3
2018-12-26T04:54:26.102Z,39.3
2018-12-26T04:55:24.877Z,45.3
2018-12-26T04:56:25.108Z,54.3
2018-12-26T04:57:26.194Z,36.3
2018-12-26T04:58:24.511Z,57.3
2018-12-26T04:59:24.482Z,54.3
2018-12-26T05:00:24.558Z,42.3
2018-12-26T05:01:24.500Z,57.3
2018-12-26T05:02:24.520Z,48.3
2018-12-26T05:03:24.555Z,39.3
2018-12-26T05:04:24.526Z,60.3
2018-12-26T05:05:24.485Z,45.3
2018-12-26T05:06:24.572Z,51.3
2018-12-26T05:07:24.530Z,42.3
2018-12-26T05:08:24.520Z,57.3
2018-12-26T05:09:24.617Z,48.3
2018-12-26T05:10:24.497Z,45.3
2018-12-26T05:11:24.492Z,30.3
2018-12-26T05:12:24.584Z,51.3
2018-12-26T05:13:24.514Z,36.3
2018-12-26T05:14:24.522Z,30.3
2018-12-26T05:15:24.487Z,36.3
2018-12-26T05:16:24.482Z,39.3
2018-12-26T05:17:24.569Z,24.3
2018-12-26T05:18:24.596Z,30.3
2018-12-26T05:19:34.391Z,33.3
2018-12-26T05:20:24.488Z,36.3
2018-12-26T05:21:24.511Z,24.3
2018-12-26T05:22:24.573Z,42.3
2018-12-26T05:23:24.499Z,36.3
2018-12-26T05:24:24.522Z,21.3
2018-12-26T05:25:24.552Z,30.3
2018-12-26T05:26:24.656Z,27.3
2018-12-26T05:27:24.509Z,24.3
2018-12-26T05:28:24.556Z,30.3
2018-12-26T05:29:24.578Z,21.3
2018-12-26T05:30:24.521Z,30.3
2018-12-26T05:31:24.502Z,36.3
2018-12-26T05:32:24.453Z,24.3
2018-12-26T05:33:24.559Z,30.3
2018-12-26T05:34:24.495Z,39.3
2018-12-26T05:35:24.495Z,33.3
2018-12-26T05:36:24.524Z,18.3
2018-12-26T05:37:24.571Z,18.3
2018-12-26T05:38:24.455Z,24.3
2018-12-26T05:39:24.505Z,33.3
2018-12-26T05:40:24.500Z,24.3
2018-12-26T05:41:24.502Z,24.3
2018-12-26T05:42:24.550Z,18.3
2018-12-26T05:43:24.463Z,27.3
2018-12-26T05:44:24.486Z,27.3
2018-12-26T05:45:24.499Z,36.3
2018-12-26T05:46:24.475Z,45.3
2018-12-26T05:47:24.524Z,33.3
2018-12-26T05:48:24.547Z,30.3
2018-12-26T05:49:24.513Z,30.3
2018-12-26T05:50:24.481Z,33.3
2018-12-26T05:51:24.479Z,30.3
2018-12-26T05:52:24.498Z,24.3
2018-12-26T05:53:24.554Z,30.3
2018-12-26T05:54:24.437Z,36.3
2018-12-26T05:55:24.465Z,30.3
2018-12-26T05:56:24.478Z,24.3
2018-12-26T05:57:24.470Z,30.3
2018-12-26T05:58:24.543Z,27.3
2018-12-26T05:59:24.458Z,33.3
2018-12-26T06:00:24.464Z,27.3
2018-12-26T06:01:24.479Z,15.4
2018-12-26T06:02:24.518Z,18.3
2018-12-26T06:03:24.536Z,6.6
2018-12-26T06:04:24.633Z,18.3
2018-12-26T06:05:24.469Z,18.3
2018-12-26T06:06:24.487Z,33.3
2018-12-26T06:07:24.482Z,24.3
2018-12-26T06:08:24.548Z,27.3
2018-12-26T06:09:24.557Z,21.3
2018-12-26T06:10:24.468Z,30.3
2018-12-26T06:11:24.553Z,39.3
2018-12-26T06:12:24.474Z,45.3
2018-12-26T06:13:24.466Z,24.3
2018-12-26T06:14:24.465Z,36.3
2018-12-26T06:15:24.484Z,30.3
2018-12-26T06:16:24.502Z,21.3
2018-12-26T06:17:24.485Z,39.3
2018-12-26T06:18:24.533Z,30.3
2018-12-26T06:19:24.470Z,33.3
2018-12-26T06:20:24.659Z,30.3
2018-12-26T06:21:24.535Z,24.3
2018-12-26T06:22:24.479Z,21.3
2018-12-26T06:23:24.454Z,27.3
2018-12-26T06:24:24.566Z,18.3
2018-12-26T06:25:24.520Z,36.3
2018-12-26T06:26:24.435Z,39.3
2018-12-26T06:27:24.459Z,27.3
2018-12-26T06:28:24.465Z,24.3
2018-12-26T06:29:24.484Z,21.3
2018-12-26T06:30:24.537Z,36.3
2018-12-26T06:31:24.480Z,39.3
2018-12-26T06:32:25.325Z,27.3
2018-12-26T06:33:24.580Z,21.3
2018-12-26T06:34:24.464Z,36.3
2018-12-26T06:35:24.450Z,30.3
2018-12-26T06:36:24.454Z,21.3
2018-12-26T06:37:24.422Z,15.4
2018-12-26T06:38:24.491Z,27.3
2018-12-26T06:39:24.447Z,12.4
2018-12-26T06:40:24.441Z,15.4
2018-12-26T06:41:24.474Z,18.3
2018-12-26T06:42:24.530Z,15.4
2018-12-26T06:43:24.419Z,18.3
2018-12-26T06:44:24.478Z,21.3
2018-12-26T06:45:24.519Z,18.3
2018-12-26T06:46:24.467Z,27.3
2018-12-26T06:47:24.517Z,21.3
2018-12-26T06:48:24.454Z,27.3
2018-12-26T06:49:24.451Z,30.3
2018-12-26T06:50:24.549Z,36.3
2018-12-26T06:51:24.462Z,27.3
2018-12-26T06:52:25.374Z,24.3
2018-12-26T06:53:24.440Z,27.3
2018-12-26T06:54:24.415Z,33.3
2018-12-26T06:55:24.516Z,30.3
2018-12-26T06:56:24.455Z,30.3
2018-12-26T06:57:24.442Z,24.3
2018-12-26T06:58:24.434Z,30.3
2018-12-26T06:59:24.487Z,39.3
2018-12-26T07:00:24.433Z,21.3
2018-12-26T07:01:24.493Z,12.4
2018-12-26T07:02:24.499Z,21.3
2018-12-26T07:03:26.058Z,21.3
2018-12-26T07:04:24.445Z,24.3
2018-12-26T07:05:24.438Z,24.3
2018-12-26T07:06:24.513Z,27.3
2018-12-26T07:07:24.443Z,30.3
2018-12-26T07:08:24.439Z,24.3
2018-12-26T07:09:24.447Z,27.3
2018-12-26T07:10:24.435Z,24.3
2018-12-26T07:11:24.522Z,18.3
2018-12-26T07:12:24.436Z,12.4
2018-12-26T07:13:24.432Z,21.3
2018-12-26T07:14:24.489Z,27.3
2018-12-26T07:15:24.407Z,24.3
2018-12-26T07:16:24.422Z,36.3
2018-12-26T07:17:24.442Z,18.3
2018-12-26T07:18:24.438Z,27.3
2018-12-26T07:19:24.490Z,39.3
2018-12-26T07:20:24.411Z,21.3
2018-12-26T07:21:24.409Z,21.3
2018-12-26T07:22:24.443Z,30.3
2018-12-26T07:23:24.439Z,21.3
2018-12-26T07:24:24.458Z,39.3
2018-12-26T07:25:24.429Z,39.3
2018-12-26T07:26:24.400Z,21.3
2018-12-26T07:27:24.522Z,36.3
2018-12-26T07:28:24.403Z,36.3
2018-12-26T07:29:24.427Z,42.3
2018-12-26T07:30:24.435Z,30.3
2018-12-26T07:31:24.426Z,24.3
2018-12-26T07:32:24.442Z,30.3
2018-12-26T07:33:24.398Z,33.3
2018-12-26T07:34:24.401Z,24.3
2018-12-26T07:35:24.521Z,24.3
2018-12-26T07:36:24.410Z,18.3
2018-12-26T07:37:24.476Z,18.3
2018-12-26T07:38:24.385Z,18.3
2018-12-26T07:39:24.570Z,21.3
2018-12-26T07:40:24.374Z,30.3
2018-12-26T07:41:24.497Z,18.3
2018-12-26T07:42:24.423Z,18.3
2018-12-26T07:43:24.372Z,27.3
2018-12-26T07:44:24.420Z,24.3
2018-12-26T07:45:24.432Z,36.3
2018-12-26T07:46:24.476Z,24.3
2018-12-26T07:47:24.408Z,30.3
2018-12-26T07:48:24.481Z,27.3
2018-12-26T07:49:24.399Z,33.3
2018-12-26T07:50:24.402Z,24.3
2018-12-26T07:51:24.402Z,36.3
2018-12-26T07:52:24.416Z,30.3
2018-12-26T07:53:24.498Z,30.3
2018-12-26T07:54:24.380Z,27.3
2018-12-26T07:55:24.393Z,30.3
2018-12-26T07:56:24.428Z,18.3
2018-12-26T07:57:24.463Z,27.3
2018-12-26T07:58:24.453Z,33.3
2018-12-26T07:59:24.382Z,27.3
2018-12-26T08:00:24.385Z,27.3
2018-12-26T08:01:24.460Z,18.3
2018-12-26T08:02:24.389Z,21.3
2018-12-26T08:03:24.406Z,15.4
2018-12-26T08:04:24.428Z,24.3
2018-12-26T08:05:24.389Z,18.3
2018-12-26T08:06:24.520Z,21.3
2018-12-26T08:07:24.401Z,21.3
2018-12-26T08:08:24.395Z,18.3
2018-12-26T08:09:24.413Z,18.3
2018-12-26T08:10:24.403Z,24.3
2018-12-26T08:11:24.469Z,27.3
2018-12-26T08:12:24.390Z,27.3
2018-12-26T08:13:24.387Z,27.3
2018-12-26T08:14:24.390Z,33.3
2018-12-26T08:15:24.394Z,27.3
2018-12-26T08:16:24.433Z,21.3
2018-12-26T08:17:24.411Z,15.4
2018-12-26T08:18:24.403Z,33.3
2018-12-26T08:19:24.399Z,27.3
2018-12-26T08:20:24.402Z,27.3
2018-12-26T08:21:24.437Z,33.3
2018-12-26T08:22:24.495Z,30.3
2018-12-26T08:23:24.395Z,30.3
2018-12-26T08:24:24.414Z,18.3
2018-12-26T08:25:24.369Z,27.3
2018-12-26T08:26:24.429Z,33.3
2018-12-26T08:27:24.360Z,21.3
2018-12-26T08:28:28.087Z,36.3
2018-12-26T08:29:24.364Z,36.3
2018-12-26T08:30:24.546Z,39.3
2018-12-26T08:31:24.415Z,42.3
2018-12-26T08:32:24.380Z,30.3
2018-12-26T08:33:24.464Z,27.3
2018-12-26T08:34:24.373Z,33.3
2018-12-26T08:35:24.357Z,30.3
2018-12-26T08:36:25.530Z,21.3
2018-12-26T08:37:24.453Z,36.3
2018-12-26T08:38:24.368Z,33.3
2018-12-26T08:39:25.575Z,30.3
2018-12-26T08:40:24.377Z,36.3
2018-12-26T08:41:24.553Z,18.3
2018-12-26T08:42:24.524Z,12.4
2018-12-26T08:43:24.354Z,27.3
2018-12-26T08:44:24.369Z,18.3
2018-12-26T08:45:24.432Z,18.3
2018-12-26T08:46:24.374Z,18.3
2018-12-26T08:47:24.426Z,15.4
2018-12-26T08:48:24.354Z,30.3
2018-12-26T08:49:24.419Z,15.4
2018-12-26T08:50:24.371Z,30.3
2018-12-26T08:51:24.397Z,21.3
2018-12-26T08:52:24.391Z,24.3
2018-12-26T08:53:24.433Z,27.3
2018-12-26T08:54:24.349Z,27.3
2018-12-26T08:55:26.017Z,27.3
2018-12-26T08:56:24.390Z,15.4
2018-12-26T08:57:24.383Z,9.5
2018-12-26T08:58:24.396Z,18.3
2018-12-26T08:59:24.412Z,27.3
2018-12-26T09:00:24.515Z,15.4
2018-12-26T09:01:24.747Z,21.3
2018-12-26T09:02:24.445Z,27.3
2018-12-26T09:03:24.357Z,27.3
2018-12-26T09:04:24.442Z,36.3
2018-12-26T09:05:24.408Z,33.3
2018-12-26T09:06:24.362Z,24.3
2018-12-26T09:07:24.359Z,33.3
2018-12-26T09:08:24.390Z,51.3
2018-12-26T09:09:24.484Z,21.3
2018-12-26T09:10:24.316Z,24.3
2018-12-26T09:11:24.437Z,36.3
2018-12-26T09:12:24.377Z,51.3
2018-12-26T09:13:24.357Z,30.3
2018-12-26T09:14:24.356Z,42.3
2018-12-26T09:15:24.340Z,27.3
2018-12-26T09:16:24.384Z,39.3
2018-12-26T09:17:24.344Z,21.3
2018-12-26T09:18:24.344Z,30.3
2018-12-26T09:19:24.365Z,21.3
2018-12-26T09:20:24.368Z,45.3
2018-12-26T09:21:24.412Z,36.3
2018-12-26T09:22:24.350Z,24.3
2018-12-26T09:23:24.364Z,45.3
2018-12-26T09:24:24.356Z,42.3
2018-12-26T09:25:24.353Z,39.3
2018-12-26T09:26:24.417Z,36.3
2018-12-26T09:27:24.356Z,39.3
2018-12-26T09:28:24.374Z,42.3
2018-12-26T09:29:24.369Z,48.3
2018-12-26T09:30:24.362Z,39.3
2018-12-26T09:31:24.337Z,33.3
2018-12-26T09:32:24.385Z,42.3
2018-12-26T09:33:24.368Z,39.3
2018-12-26T09:34:24.436Z,36.3
2018-12-26T09:35:24.358Z,30.3
2018-12-26T09:36:24.349Z,39.3
2018-12-26T09:37:24.322Z,45.3
2018-12-26T09:38:24.300Z,45.3
2018-12-26T09:39:24.373Z,45.3
2018-12-26T09:40:24.497Z,27.3
2018-12-26T09:41:24.358Z,36.3
2018-12-26T09:42:24.423Z,42.3
2018-12-26T09:43:24.306Z,27.3
2018-12-26T09:44:24.329Z,48.3
2018-12-26T09:45:24.354Z,42.3
2018-12-26T09:46:24.359Z,27.3
2018-12-26T09:47:24.410Z,27.3
2018-12-26T09:48:24.305Z,30.3
2018-12-26T09:49:24.356Z,30.3
2018-12-26T09:50:24.396Z,27.3
2018-12-26T09:51:24.357Z,39.3
2018-12-26T09:52:24.413Z,42.3
2018-12-26T09:53:24.349Z,33.3
2018-12-26T09:54:24.308Z,39.3
2018-12-26T09:55:24.403Z,24.3
2018-12-26T09:56:24.331Z,36.3
2018-12-26T09:57:24.398Z,42.3
2018-12-26T09:58:24.359Z,45.3
2018-12-26T09:59:24.293Z,27.3
2018-12-26T10:00:24.342Z,36.3
2018-12-26T10:01:24.340Z,45.3
2018-12-26T10:02:24.414Z,42.3
2018-12-26T10:03:24.354Z,51.3
2018-12-26T10:04:24.317Z,42.3
2018-12-26T10:05:24.326Z,42.3
2018-12-26T10:06:24.326Z,45.3
2018-12-26T10:07:24.560Z,51.3
2018-12-26T10:08:24.423Z,45.3
2018-12-26T10:09:24.351Z,36.3
2018-12-26T10:10:24.330Z,48.3
2018-12-26T10:11:24.339Z,48.3
2018-12-26T10:12:24.412Z,48.3
2018-12-26T10:13:24.390Z,63.4
2018-12-26T10:14:24.336Z,51.3
2018-12-26T10:15:24.377Z,51.3
2018-12-26T10:16:24.342Z,42.3
2018-12-26T10:17:24.361Z,45.3
2018-12-26T10:18:24.343Z,54.3
2018-12-26T10:19:24.342Z,57.3
2018-12-26T10:20:24.402Z,57.3
2018-12-26T10:21:24.377Z,54.3
2018-12-26T10:22:24.311Z,57.3
2018-12-26T10:23:24.373Z,39.3
2018-12-26T10:24:24.307Z,42.3
2018-12-26T10:25:24.565Z,48.3
2018-12-26T10:26:24.346Z,39.3
2018-12-26T10:27:24.373Z,63.4
2018-12-26T10:28:24.322Z,48.3
2018-12-26T10:29:24.375Z,42.3
2018-12-26T10:30:24.336Z,45.3
2018-12-26T10:31:24.328Z,54.3
2018-12-26T10:32:24.562Z,48.3
2018-12-26T10:33:24.304Z,45.3
2018-12-26T10:34:24.302Z,39.3
2018-12-26T10:35:24.356Z,51.3
2018-12-26T10:36:24.468Z,48.3
2018-12-26T10:37:24.609Z,54.3
2018-12-26T10:38:24.367Z,51.3
2018-12-26T10:39:24.308Z,48.3
2018-12-26T10:40:24.335Z,36.3
2018-12-26T10:41:24.332Z,60.3
2018-12-26T10:42:24.274Z,57.3
2018-12-26T10:43:24.472Z,54.3
2018-12-26T10:44:25.528Z,45.3
2018-12-26T10:45:24.292Z,33.3
2018-12-26T10:46:25.093Z,54.3
2018-12-26T10:47:27.276Z,48.3
2018-12-26T10:48:25.753Z,48.3
2018-12-26T10:49:24.552Z,45.3
2018-12-26T10:50:24.733Z,48.3
2018-12-26T10:51:27.194Z,51.3
2018-12-26T10:52:24.465Z,60.3
2018-12-26T10:53:28.457Z,45.3
2018-12-26T10:54:24.668Z,42.3
2018-12-26T10:55:26.102Z,42.3
2018-12-26T10:56:24.311Z,60.3
2018-12-26T10:57:24.375Z,45.3
2018-12-26T10:58:24.320Z,54.3
2018-12-26T10:59:24.274Z,42.3
2018-12-26T11:00:25.660Z,51.3
2018-12-26T11:01:24.284Z,45.3
2018-12-26T11:02:24.382Z,48.3
2018-12-26T11:03:26.118Z,42.3
2018-12-26T11:04:24.304Z,51.3
2018-12-26T11:05:31.360Z,60.3
2018-12-26T11:06:24.425Z,54.3
2018-12-26T11:07:24.468Z,45.3
2018-12-26T11:09:27.082Z,54.3
2018-12-26T11:10:27.011Z,48.3
2018-12-26T11:11:27.083Z,48.3
2018-12-26T11:12:27.171Z,51.3
2018-12-26T11:13:27.174Z,51.3
2018-12-26T11:14:27.104Z,54.3
2018-12-26T11:15:27.085Z,39.3
2018-12-26T11:16:27.043Z,57.3
2018-12-26T11:17:28.608Z,54.3
2018-12-26T11:18:26.963Z,51.3
2018-12-26T11:19:31.223Z,39.3
2018-12-26T11:20:26.977Z,39.3
2018-12-26T11:21:28.249Z,48.3
2018-12-26T11:22:27.037Z,45.3
2018-12-26T11:23:30.650Z,48.3
2018-12-26T11:24:29.788Z,42.3
2018-12-26T11:25:29.076Z,36.3
2018-12-26T11:26:29.057Z,42.3
2018-12-26T11:27:30.811Z,42.3
2018-12-26T11:28:28.776Z,36.3
2018-12-26T11:29:26.953Z,51.3
2018-12-26T11:30:27.018Z,54.3
2018-12-26T11:31:26.990Z,36.3
2018-12-26T11:32:26.957Z,42.3
2018-12-26T11:33:27.267Z,45.3
2018-12-26T11:34:26.994Z,45.3
2018-12-26T11:35:27.034Z,42.3
2018-12-26T11:36:26.997Z,45.3
2018-12-26T11:37:26.982Z,48.3
2018-12-26T11:38:27.059Z,54.3
2018-12-26T11:39:26.974Z,45.3
2018-12-26T11:40:26.977Z,36.3
2018-12-26T11:41:27.014Z,39.3
2018-12-26T11:42:26.976Z,39.3
2018-12-26T11:43:27.689Z,30.3
2018-12-26T11:44:27.063Z,42.3
2018-12-26T11:45:26.973Z,39.3
2018-12-26T11:46:26.954Z,42.3
2018-12-26T11:47:27.060Z,57.3
2018-12-26T11:48:26.979Z,54.3
2018-12-26T11:49:26.962Z,39.3
2018-12-26T11:50:26.955Z,36.3
2018-12-26T11:51:26.962Z,36.3
2018-12-26T11:52:27.030Z,27.3
2018-12-26T11:53:26.967Z,30.3
2018-12-26T11:54:27.016Z,39.3
2018-12-26T11:55:27.057Z,33.3
2018-12-26T11:56:26.956Z,36.3
2018-12-26T11:57:26.955Z,45.3
2018-12-26T11:58:26.984Z,51.3
2018-12-26T11:59:28.437Z,39.3
2018-12-26T12:00:27.031Z,36.3
2018-12-26T12:01:26.973Z,48.3
2018-12-26T12:02:26.957Z,45.3
2018-12-26T12:03:26.976Z,36.3
2018-12-26T12:04:26.940Z,36.3
2018-12-26T12:05:27.031Z,39.3
2018-12-26T12:06:26.990Z,42.3
2018-12-26T12:07:26.951Z,45.3
2018-12-26T12:08:26.969Z,39.3
2018-12-26T12:09:26.967Z,42.3
2018-12-26T12:10:26.992Z,45.3
2018-12-26T12:11:27.342Z,45.3
2018-12-26T12:12:26.951Z,42.3
2018-12-26T12:13:26.944Z,33.3
2018-12-26T12:14:27.025Z,42.3
2018-12-26T12:15:27.010Z,36.3
2018-12-26T12:16:27.088Z,45.3
2018-12-26T12:17:28.648Z,42.3
2018-12-26T12:18:27.047Z,39.3
2018-12-26T12:19:27.047Z,39.3
2018-12-26T12:20:27.124Z,39.3
2018-12-26T12:21:27.032Z,42.3
2018-12-26T12:22:26.976Z,42.3
2018-12-26T12:23:27.066Z,42.3
2018-12-26T12:24:27.006Z,48.3
2018-12-26T12:25:26.973Z,45.3
2018-12-26T12:26:28.349Z,51.3
2018-12-26T12:27:27.662Z,48.3
2018-12-26T12:28:35.024Z,36.3
2018-12-26T12:29:37.434Z,45.3
2018-12-26T12:30:34.958Z,54.3
2018-12-26T12:31:35.921Z,48.3
2018-12-26T12:32:34.942Z,54.3
2018-12-26T12:33:35.091Z,54.3
2018-12-26T12:34:35.004Z,51.3
2018-12-26T12:35:34.955Z,45.3
2018-12-26T12:36:35.037Z,57.3
2018-12-26T12:37:34.948Z,54.3
2018-12-26T12:38:34.995Z,54.3
2018-12-26T12:39:35.688Z,51.3
2018-12-26T12:40:34.961Z,51.3
2018-12-26T12:41:34.914Z,45.3
2018-12-26T12:42:35.024Z,45.3
2018-12-26T12:43:35.017Z,48.3
2018-12-26T12:44:34.940Z,48.3
2018-12-26T12:45:34.959Z,51.3
2018-12-26T12:46:34.947Z,54.3
2018-12-26T12:47:36.148Z,51.3
2018-12-26T12:48:34.973Z,48.3
2018-12-26T12:49:34.978Z,45.3
2018-12-26T12:50:35.015Z,39.3
2018-12-26T12:51:34.860Z,48.3
2018-12-26T12:52:34.908Z,57.3
2018-12-26T12:53:36.217Z,48.3
2018-12-26T12:54:35.090Z,42.3
2018-12-26T12:55:34.963Z,48.3
2018-12-26T12:56:34.946Z,42.3
2018-12-26T12:57:34.967Z,63.4
2018-12-26T12:58:35.211Z,45.3
2018-12-26T12:59:35.052Z,48.3
2018-12-26T13:00:35.089Z,42.3
2018-12-26T13:01:35.079Z,54.3
2018-12-26T13:02:35.054Z,48.3
2018-12-26T13:03:35.073Z,48.3
2018-12-26T13:04:35.073Z,54.3
2018-12-26T13:05:35.048Z,60.3
2018-12-26T13:06:35.003Z,63.4
2018-12-26T13:07:37.755Z,36.3
2018-12-26T13:08:34.962Z,39.3
2018-12-26T13:09:35.080Z,39.3
2018-12-26T13:10:34.852Z,42.3
2018-12-26T13:11:34.900Z,54.3
2018-12-26T13:12:34.875Z,48.3
2018-12-26T13:13:34.892Z,51.3
2018-12-26T13:14:34.916Z,51.3
2018-12-26T13:15:34.826Z,54.3
2018-12-26T13:16:34.867Z,42.3
2018-12-26T13:17:34.848Z,48.3
2018-12-26T13:18:34.856Z,42.3
2018-12-26T13:19:34.944Z,39.3